Terminal Aerodrome Forecast
Issued by NWS

Current Version | Previous Version | Graphics & Text | Print | Product List | Glossary On
Versions: 1 2 3 4 5 6 7 8 9 10 11 12 13 14 15 16 17 18 19 20
000
FTUS41 KPBZ 030957 AAB
TAFHLG
TAF AMD
KHLG 030957Z 0310/0406 32005KT P6SM BKN008
     FM031300 32005KT P6SM BKN015
     FM031500 30008KT P6SM BKN040=

USA.gov is the U.S. government's official web portal to all federal, state and local government web resources and services.